Time;durP1;ratioP1;P1;durP2;ratioP2;P2;SDS_P1;SDS_P2;PMS_P1;PMS_P2;Temp;Humidity;BMP_temperature;BMP_pressure;BME280_temperature;BME280_humidity;BME280_pressure;Samples;Min_cycle;Max_cycle;Signal;HPM_P1;HPM_P2
2022/05/21 00:01:19;;;;;;;0.50;0.50;;;10.60;99.90;;;;;;5015419;28;20056;-72
2022/05/21 00:03:45;;;;;;;0.50;0.50;;;10.60;99.90;;;;;;5015963;28;20073;-70
2022/05/21 00:06:10;;;;;;;0.40;0.40;;;10.60;99.90;;;;;;5015808;28;20057;-70
2022/05/21 00:08:36;;;;;;;1.98;0.88;;;10.70;99.90;;;;;;5016092;28;20053;-70
2022/05/21 00:11:02;;;;;;;0.52;0.52;;;10.60;99.90;;;;;;4965205;28;20470;-71
2022/05/21 00:13:28;;;;;;;0.68;0.68;;;10.50;99.90;;;;;;5015965;28;20049;-72
2022/05/21 00:15:54;;;;;;;1.35;1.25;;;10.50;99.90;;;;;;5015357;28;20042;-71
2022/05/21 00:18:20;;;;;;;0.40;0.40;;;10.50;99.90;;;;;;4995393;28;20050;-71
2022/05/21 00:20:48;;;;;;;1.65;1.20;;;10.50;99.90;;;;;;5015676;28;20435;-70
2022/05/21 00:23:15;;;;;;;0.60;0.60;;;10.50;99.90;;;;;;5016085;28;20113;-72
2022/05/21 00:25:42;;;;;;;0.50;0.50;;;10.60;99.90;;;;;;4998603;28;20049;-72
2022/05/21 00:28:08;;;;;;;0.77;0.77;;;10.60;99.90;;;;;;5015422;28;20060;-71
2022/05/21 00:30:34;;;;;;;0.60;0.60;;;10.60;99.90;;;;;;5015497;28;20052;-71
2022/05/21 00:33:01;;;;;;;0.80;0.80;;;10.60;99.90;;;;;;5015270;28;20445;-71
2022/05/21 00:35:26;;;;;;;0.40;0.40;;;10.60;99.90;;;;;;5015056;28;20493;-70
2022/05/21 00:37:52;;;;;;;0.73;0.73;;;10.60;99.90;;;;;;5012042;28;20058;-71
2022/05/21 00:40:18;;;;;;;0.73;0.73;;;10.70;99.90;;;;;;5015192;28;20053;-70
2022/05/21 00:42:45;;;;;;;1.75;1.65;;;10.60;99.90;;;;;;5015298;28;20346;-71
2022/05/21 00:45:12;;;;;;;0.40;0.40;;;10.60;99.90;;;;;;4997743;28;20073;-70
2022/05/21 00:47:37;;;;;;;0.50;0.50;;;10.70;99.90;;;;;;5012739;28;20101;-71
2022/05/21 00:50:06;;;;;;;1.08;0.98;;;10.60;99.90;;;;;;5015169;28;20414;-70
2022/05/21 00:52:33;;;;;;;2.45;1.10;;;10.70;99.90;;;;;;4997807;28;20049;-70
2022/05/21 00:55:07;;;;;;;0.70;0.70;;;10.70;99.90;;;;;;5015407;28;20077;-71
2022/05/21 00:59:47;;;;;;;1.33;0.98;;;10.70;99.90;;;;;;5015365;28;20046;-70
2022/05/21 01:00:40;;;;;;;0.80;0.80;;;10.70;99.90;;;;;;4997428;28;20116;-72
2022/05/21 01:03:07;;;;;;;1.65;0.80;;;10.80;99.90;;;;;;5014844;28;20041;-71
2022/05/21 01:05:33;;;;;;;0.70;0.70;;;10.80;99.90;;;;;;5015430;28;20046;-70
2022/05/21 01:08:01;;;;;;;1.10;0.93;;;10.90;99.90;;;;;;5015163;28;20362;-71
2022/05/21 01:10:33;;;;;;;1.20;1.10;;;10.90;99.90;;;;;;5015063;28;20057;-70
2022/05/21 01:13:01;;;;;;;25.33;1.27;;;10.90;99.90;;;;;;5011876;28;20045;-70
2022/05/21 01:15:30;;;;;;;0.93;0.85;;;11.00;99.90;;;;;;5014833;28;20303;-70
2022/05/21 01:17:56;;;;;;;0.60;0.60;;;11.00;99.90;;;;;;5015192;28;20057;-69
2022/05/21 01:20:33;;;;;;;1.13;1.02;;;11.00;99.90;;;;;;5014890;28;20061;-71
2022/05/21 01:22:58;;;;;;;0.57;0.57;;;11.00;99.90;;;;;;4997287;28;20050;-70
2022/05/21 01:25:26;;;;;;;0.55;0.55;;;11.10;99.90;;;;;;5014571;28;20057;-70
2022/05/21 01:27:56;;;;;;;0.95;0.93;;;11.10;99.90;;;;;;4997765;28;20065;-71
2022/05/21 01:30:42;;;;;;;0.70;0.70;;;11.10;99.90;;;;;;5014788;28;20143;-70
2022/05/21 01:33:11;;;;;;;1.13;1.08;;;11.20;99.90;;;;;;5015027;28;20136;-69
2022/05/21 01:35:37;;;;;;;0.82;0.82;;;11.20;99.90;;;;;;5015525;28;20042;-71
2022/05/21 01:38:04;;;;;;;0.50;0.50;;;11.20;99.90;;;;;;5014534;28;20502;-72
2022/05/21 01:40:30;;;;;;;0.40;0.40;;;11.30;99.90;;;;;;5014237;28;20052;-72
2022/05/21 01:45:40;;;;;;;1.48;1.35;;;11.30;99.90;;;;;;5014988;28;20402;-72
2022/05/21 01:48:06;;;;;;;0.60;0.60;;;11.30;99.90;;;;;;5017858;28;20038;-72
2022/05/21 01:50:33;;;;;;;4.22;1.42;;;11.30;99.90;;;;;;5018488;28;20053;-70
2022/05/21 01:52:58;;;;;;;0.88;0.88;;;11.40;99.90;;;;;;5018435;28;20087;-71
2022/05/21 01:55:24;;;;;;;0.85;0.80;;;11.40;99.90;;;;;;5016707;28;20077;-70
2022/05/21 01:57:50;;;;;;;1.75;1.02;;;11.50;99.90;;;;;;5017292;28;20056;-71
2022/05/21 02:00:17;;;;;;;1.27;1.15;;;11.50;99.90;;;;;;5018676;28;20374;-71
2022/05/21 02:02:43;;;;;;;3.20;1.95;;;11.50;99.90;;;;;;5018232;28;20038;-71
2022/05/21 02:05:09;;;;;;;1.40;1.30;;;11.60;99.90;;;;;;5018034;28;20045;-70
2022/05/21 02:07:35;;;;;;;1.05;1.00;;;11.60;99.90;;;;;;5017937;28;20049;-72
2022/05/21 02:10:02;;;;;;;1.67;1.10;;;11.70;99.90;;;;;;5017651;28;20045;-71
2022/05/21 02:12:27;;;;;;;0.77;0.77;;;11.70;99.90;;;;;;5018313;28;20053;-70
2022/05/21 02:14:56;;;;;;;0.90;0.90;;;11.70;99.90;;;;;;5017829;28;20049;-70
2022/05/21 02:17:22;;;;;;;2.75;1.60;;;11.70;99.90;;;;;;5018082;28;20046;-70
2022/05/21 02:19:48;;;;;;;0.80;0.80;;;11.80;99.90;;;;;;5018046;28;20045;-71
2022/05/21 02:22:15;;;;;;;1.48;1.20;;;11.80;99.90;;;;;;5001076;28;20053;-71
2022/05/21 02:24:41;;;;;;;1.73;1.05;;;11.90;99.90;;;;;;5017340;28;20140;-70
2022/05/21 02:27:11;;;;;;;0.88;0.82;;;11.80;99.90;;;;;;4983913;28;20105;-72
2022/05/21 02:29:38;;;;;;;1.02;0.80;;;11.90;99.90;;;;;;5017747;28;20052;-71
2022/05/21 02:32:04;;;;;;;0.47;0.47;;;11.90;99.90;;;;;;5000326;28;20042;-71
2022/05/21 02:34:30;;;;;;;1.27;1.20;;;11.90;99.90;;;;;;5018035;28;20042;-71
2022/05/21 02:39:40;;;;;;;1.42;1.33;;;12.00;99.90;;;;;;5016549;28;20054;-70
2022/05/21 02:42:43;;;;;;;0.95;0.95;;;12.00;99.90;;;;;;5017312;28;20052;-70
2022/05/21 02:44:52;;;;;;;5.25;2.20;;;12.10;99.90;;;;;;5017538;28;20058;-70
2022/05/21 02:47:18;;;;;;;0.82;0.82;;;12.10;99.90;;;;;;5017175;28;20045;-72
2022/05/21 02:49:43;;;;;;;1.48;1.10;;;12.10;99.90;;;;;;5000030;28;20076;-71
2022/05/21 02:52:09;;;;;;;1.77;1.67;;;12.10;99.90;;;;;;5000113;28;20068;-70
2022/05/21 02:54:34;;;;;;;1.63;0.90;;;12.10;99.90;;;;;;5017021;28;20481;-71
2022/05/21 02:57:00;;;;;;;0.85;0.85;;;12.10;99.90;;;;;;5017059;28;20049;-69
2022/05/21 02:59:28;;;;;;;0.95;0.85;;;12.10;99.90;;;;;;5016915;28;20090;-70
2022/05/21 03:01:53;;;;;;;2.75;2.55;;;12.10;99.90;;;;;;5017078;28;20104;-71
2022/05/21 03:04:19;;;;;;;1.08;0.82;;;12.10;99.90;;;;;;5016922;28;20458;-70
2022/05/21 03:06:45;;;;;;;0.65;0.65;;;12.10;99.90;;;;;;5016942;28;20049;-70
2022/05/21 03:11:54;;;;;;;1.63;1.52;;;12.20;99.90;;;;;;5016900;28;20100;-72
2022/05/21 03:14:20;;;;;;;0.80;0.80;;;12.20;99.90;;;;;;5016398;28;20085;-70
2022/05/21 03:16:46;;;;;;;0.85;0.85;;;12.20;99.90;;;;;;4983434;28;20046;-70
2022/05/21 03:19:12;;;;;;;0.90;0.75;;;12.30;99.90;;;;;;4999779;28;20451;-71
2022/05/21 03:21:37;;;;;;;0.60;0.60;;;12.30;99.90;;;;;;4999276;28;20065;-71
2022/05/21 03:24:03;;;;;;;2.47;1.92;;;12.40;99.90;;;;;;4999186;28;20057;-70
2022/05/21 03:26:30;;;;;;;1.10;1.00;;;12.40;99.90;;;;;;5016270;28;20050;-71
2022/05/21 03:28:55;;;;;;;0.85;0.80;;;12.40;99.90;;;;;;5016327;28;20045;-70
2022/05/21 03:31:21;;;;;;;0.60;0.60;;;12.40;99.90;;;;;;4999469;28;20053;-70
2022/05/21 03:33:46;;;;;;;0.82;0.80;;;12.40;99.90;;;;;;4999522;28;20461;-70
2022/05/21 03:36:12;;;;;;;0.60;0.60;;;12.40;99.90;;;;;;5016400;28;20077;-70
2022/05/21 03:38:38;;;;;;;0.60;0.60;;;12.40;99.90;;;;;;5015361;28;20081;-71
2022/05/21 03:41:03;;;;;;;10.77;2.58;;;12.50;99.90;;;;;;5016073;28;20066;-70
2022/05/21 03:43:29;;;;;;;0.98;0.80;;;12.50;99.90;;;;;;5015954;28;20038;-70
2022/05/21 03:45:55;;;;;;;1.65;0.75;;;12.50;99.90;;;;;;5016500;28;20477;-70
2022/05/21 03:48:21;;;;;;;1.52;0.93;;;12.50;99.90;;;;;;4998950;28;20438;-70
2022/05/21 03:50:46;;;;;;;1.23;1.10;;;12.60;99.90;;;;;;5016257;28;20204;-71
2022/05/21 03:53:16;;;;;;;0.60;0.60;;;12.50;99.90;;;;;;4998352;28;20053;-71
2022/05/21 03:55:42;;;;;;;0.40;0.40;;;12.60;99.90;;;;;;5016123;28;20114;-70
2022/05/21 03:58:07;;;;;;;2.05;0.70;;;12.60;99.90;;;;;;5015704;28;20473;-71
2022/05/21 04:00:33;;;;;;;0.60;0.60;;;12.60;99.90;;;;;;4998640;28;20521;-70
2022/05/21 04:02:59;;;;;;;1.02;0.88;;;12.70;99.90;;;;;;5016105;28;20042;-72
2022/05/21 04:05:25;;;;;;;0.80;0.70;;;12.70;99.90;;;;;;5016158;28;20101;-70
2022/05/21 04:07:51;;;;;;;1.00;0.93;;;12.70;99.90;;;;;;5015602;28;20042;-71
2022/05/21 04:10:18;;;;;;;0.82;0.82;;;12.70;99.90;;;;;;5015097;28;20064;-70
2022/05/21 04:12:43;;;;;;;4.05;1.25;;;12.70;99.90;;;;;;5015616;28;20041;-70
2022/05/21 04:15:11;;;;;;;0.45;0.45;;;12.70;99.90;;;;;;5015545;28;20100;-70
2022/05/21 04:17:37;;;;;;;1.48;1.38;;;12.70;99.90;;;;;;5015455;28;20080;-70
2022/05/21 04:20:05;;;;;;;0.63;0.63;;;12.70;99.90;;;;;;5015609;28;20100;-71
2022/05/21 04:22:30;;;;;;;1.65;0.82;;;12.80;99.90;;;;;;5015029;28;20532;-72
2022/05/21 04:24:56;;;;;;;0.43;0.43;;;12.80;99.90;;;;;;5015292;28;20042;-70
2022/05/21 04:27:22;;;;;;;0.93;0.85;;;12.90;99.90;;;;;;5015237;28;20116;-71
2022/05/21 04:29:47;;;;;;;0.50;0.50;;;12.90;99.90;;;;;;5015299;28;20469;-70
2022/05/21 04:32:13;;;;;;;0.50;0.50;;;12.90;99.90;;;;;;5015501;28;20038;-69
2022/05/21 04:34:39;;;;;;;0.82;0.82;;;12.90;99.90;;;;;;5015484;28;20045;-70
2022/05/21 04:37:04;;;;;;;1.17;0.75;;;13.00;99.90;;;;;;5015305;28;20485;-70
2022/05/21 04:39:30;;;;;;;0.60;0.60;;;13.00;99.90;;;;;;5014899;28;20058;-70
2022/05/21 04:41:56;;;;;;;0.40;0.40;;;13.00;99.90;;;;;;5015208;28;20458;-70
2022/05/21 04:44:23;;;;;;;0.60;0.60;;;13.00;99.90;;;;;;5015440;28;20050;-71
2022/05/21 04:46:49;;;;;;;0.45;0.45;;;13.10;99.90;;;;;;5015167;28;20076;-70
2022/05/21 04:49:15;;;;;;;1.60;1.33;;;13.10;99.90;;;;;;5015269;28;20435;-69
2022/05/21 04:51:41;;;;;;;0.40;0.40;;;13.20;99.90;;;;;;5015175;28;20534;-71
2022/05/21 04:54:06;;;;;;;0.80;0.80;;;13.20;99.90;;;;;;5013984;28;20153;-70
2022/05/21 04:56:34;;;;;;;0.50;0.50;;;13.20;99.90;;;;;;5014929;28;20042;-70
2022/05/21 04:58:59;;;;;;;0.50;0.50;;;13.10;99.90;;;;;;5015459;28;20050;-72
2022/05/21 05:01:25;;;;;;;0.50;0.50;;;13.10;99.90;;;;;;5015071;28;20069;-72
2022/05/21 05:03:50;;;;;;;0.47;0.47;;;13.20;99.90;;;;;;5014936;28;20077;-70
2022/05/21 05:06:16;;;;;;;0.52;0.52;;;13.10;99.90;;;;;;5015050;28;20037;-71
2022/05/21 05:08:41;;;;;;;0.80;0.80;;;13.20;99.90;;;;;;5014535;28;20060;-72
2022/05/21 05:11:07;;;;;;;0.70;0.70;;;13.30;99.90;;;;;;5014618;28;20061;-70
2022/05/21 05:13:32;;;;;;;0.40;0.40;;;13.60;99.90;;;;;;5014946;28;20049;-69
2022/05/21 05:15:58;;;;;;;2.70;2.50;;;13.80;99.90;;;;;;5015085;28;20421;-70
2022/05/21 05:18:27;;;;;;;1.77;1.67;;;14.20;99.90;;;;;;5015079;28;20526;-72
2022/05/21 05:20:53;;;;;;;0.30;0.30;;;14.60;99.90;;;;;;5015021;28;20050;-71
2022/05/21 05:23:19;;;;;;;0.30;0.30;;;15.00;99.90;;;;;;5018168;28;20045;-71
2022/05/21 05:25:44;;;;;;;0.38;0.38;;;15.10;99.90;;;;;;5018737;28;20053;-72
2022/05/21 05:28:19;;;;;;;0.40;0.40;;;15.10;99.90;;;;;;5001630;28;20050;-71
2022/05/21 05:30:46;;;;;;;0.80;0.80;;;14.90;99.90;;;;;;5019133;28;20366;-69
2022/05/21 05:33:13;;;;;;;0.88;0.82;;;14.80;99.90;;;;;;5001685;28;20129;-71
2022/05/21 05:35:40;;;;;;;0.30;0.30;;;14.60;99.90;;;;;;5018531;28;20042;-71
2022/05/21 05:38:07;;;;;;;0.32;0.32;;;14.50;99.90;;;;;;5018073;28;20058;-69
2022/05/21 05:40:33;;;;;;;0.40;0.40;;;14.40;99.90;;;;;;5018805;28;20068;-70
2022/05/21 05:43:01;;;;;;;0.30;0.30;;;14.50;99.90;;;;;;5000907;28;20053;-70
2022/05/21 05:45:27;;;;;;;0.40;0.40;;;14.50;99.90;;;;;;5018585;28;20050;-71
2022/05/21 05:47:52;;;;;;;0.40;0.40;;;14.50;99.90;;;;;;5018586;28;20030;-71
2022/05/21 05:50:18;;;;;;;0.50;0.50;;;14.40;99.90;;;;;;5018448;28;20049;-70
2022/05/21 05:52:44;;;;;;;1.27;0.65;;;14.30;99.90;;;;;;5017773;28;20458;-71
2022/05/21 05:55:09;;;;;;;1.52;1.42;;;14.20;99.90;;;;;;5000773;28;20046;-70
2022/05/21 05:57:35;;;;;;;0.43;0.43;;;14.20;99.90;;;;;;4983808;28;20054;-70
2022/05/21 06:00:01;;;;;;;0.40;0.40;;;14.20;99.90;;;;;;5018491;28;20042;-70
2022/05/21 06:05:16;;;;;;;0.40;0.40;;;14.90;99.90;;;;;;5017956;28;20060;-70
2022/05/21 06:07:50;;;;;;;0.60;0.60;;;15.80;99.90;;;;;;5017623;28;20104;-69
2022/05/21 06:10:20;;;;;;;6.15;2.45;;;16.00;99.90;;;;;;5017796;28;20466;-70
2022/05/21 06:12:47;;;;;;;0.55;0.55;;;16.10;99.90;;;;;;5017948;28;20041;-73
2022/05/21 06:15:13;;;;;;;0.35;0.35;;;16.40;99.90;;;;;;5018668;28;20038;-70
2022/05/21 06:17:39;;;;;;;0.35;0.35;;;16.40;99.90;;;;;;5001933;28;20073;-72
2022/05/21 06:20:08;;;;;;;0.50;0.50;;;16.00;99.90;;;;;;5017778;28;20042;-72
2022/05/21 06:22:35;;;;;;;0.55;0.55;;;15.90;99.90;;;;;;5017182;28;20048;-72
2022/05/21 06:25:01;;;;;;;0.40;0.40;;;16.00;99.90;;;;;;5017297;28;20053;-73
2022/05/21 06:27:27;;;;;;;0.73;0.73;;;15.90;99.90;;;;;;5007906;28;20370;-71
2022/05/21 06:29:52;;;;;;;1.20;1.02;;;16.80;99.90;;;;;;5027385;28;20037;-73
2022/05/21 06:32:18;;;;;;;0.30;0.30;;;17.10;99.90;;;;;;5025149;28;20406;-71
2022/05/21 06:34:43;;;;;;;0.30;0.30;;;17.10;99.90;;;;;;5022213;28;20046;-70
2022/05/21 06:37:11;;;;;;;0.30;0.30;;;17.00;99.90;;;;;;5016859;28;20038;-71
2022/05/21 06:39:38;;;;;;;0.55;0.50;;;17.00;99.90;;;;;;5017155;28;20069;-70
2022/05/21 06:42:06;;;;;;;0.40;0.40;;;17.20;99.90;;;;;;5027227;28;20450;-71
2022/05/21 06:44:32;;;;;;;6.85;2.88;;;17.40;99.90;;;;;;5019854;28;20057;-71
2022/05/21 06:46:58;;;;;;;0.30;0.30;;;17.30;99.90;;;;;;5022756;28;20366;-70
2022/05/21 06:49:26;;;;;;;0.65;0.65;;;17.20;99.90;;;;;;5021429;28;20092;-70
2022/05/21 06:51:54;;;;;;;5.75;1.48;;;17.50;99.90;;;;;;5016381;28;20116;-70
2022/05/21 06:54:19;;;;;;;4.80;0.77;;;18.00;99.90;;;;;;5000050;28;20052;-70
2022/05/21 06:56:45;;;;;;;0.50;0.50;;;18.10;99.90;;;;;;5017204;28;20414;-72
2022/05/21 06:59:11;;;;;;;0.80;0.57;;;18.10;99.90;;;;;;4999403;28;20125;-71
2022/05/21 07:01:36;;;;;;;0.47;0.47;;;18.00;99.90;;;;;;5017156;28;20072;-72
2022/05/21 07:04:02;;;;;;;5.50;0.77;;;17.60;99.90;;;;;;5016793;28;20064;-72
2022/05/21 07:09:12;;;;;;;0.60;0.60;;;17.70;99.90;;;;;;5016803;28;20057;-72
2022/05/21 07:11:38;;;;;;;0.73;0.68;;;18.40;99.90;;;;;;4999221;28;20053;-70
2022/05/21 07:14:03;;;;;;;0.30;0.30;;;18.80;99.90;;;;;;5017039;28;20038;-72
2022/05/21 07:16:30;;;;;;;0.50;0.50;;;18.70;99.90;;;;;;5016595;28;20053;-71
2022/05/21 07:18:56;;;;;;;1.65;0.82;;;18.20;99.90;;;;;;5016517;28;20053;-70
2022/05/21 07:21:22;;;;;;;2.67;1.35;;;18.30;99.90;;;;;;5016639;28;20050;-72
2022/05/21 07:23:48;;;;;;;0.40;0.40;;;17.90;99.90;;;;;;5016813;28;20065;-73
2022/05/21 07:26:15;;;;;;;0.38;0.38;;;17.90;99.90;;;;;;5015977;28;20041;-72
2022/05/21 07:28:41;;;;;;;0.30;0.30;;;18.20;99.90;;;;;;5016274;28;20041;-71
2022/05/21 07:31:07;;;;;;;0.40;0.40;;;18.10;99.90;;;;;;5016392;28;20493;-71
2022/05/21 07:33:32;;;;;;;0.30;0.30;;;18.20;99.90;;;;;;5014333;28;20425;-73
2022/05/21 07:35:58;;;;;;;2.30;1.60;;;18.50;99.90;;;;;;4998551;28;20097;-75
2022/05/21 07:38:23;;;;;;;0.45;0.30;;;18.80;99.90;;;;;;5015494;28;20188;-72
2022/05/21 07:40:51;;;;;;;0.40;0.40;;;18.90;99.90;;;;;;5015529;28;20081;-71
2022/05/21 07:43:27;;;;;;;0.32;0.32;;;18.70;99.90;;;;;;5015266;28;20049;-70
2022/05/21 07:45:56;;;;;;;0.43;0.43;;;19.20;99.90;;;;;;5015966;28;20366;-73
2022/05/21 07:48:22;;;;;;;0.70;0.70;;;19.40;99.90;;;;;;5015867;28;20577;-74
2022/05/21 07:50:50;;;;;;;4.18;2.15;;;18.90;99.90;;;;;;5016253;28;20128;-71
2022/05/21 07:53:28;;;;;;;0.35;0.35;;;18.90;99.90;;;;;;5015915;28;20060;-72
2022/05/21 07:55:55;;;;;;;1.85;0.60;;;19.20;99.90;;;;;;5015574;28;20058;-73
2022/05/21 07:58:22;;;;;;;0.38;0.38;;;19.40;99.90;;;;;;5015611;28;20042;-70
2022/05/21 08:00:50;;;;;;;1.35;1.20;;;19.70;99.90;;;;;;4999076;28;20053;-74
2022/05/21 08:03:15;;;;;;;0.65;0.65;;;20.60;99.90;;;;;;4998358;28;20046;-72
2022/05/21 08:05:42;;;;;;;4.13;0.60;;;20.70;99.90;;;;;;5015807;28;20352;-71
2022/05/21 08:08:09;;;;;;;1.05;0.95;;;21.00;99.90;;;;;;4998326;28;20115;-72
2022/05/21 08:10:36;;;;;;;0.63;0.63;;;21.10;99.90;;;;;;5016058;28;20045;-75
2022/05/21 08:13:02;;;;;;;0.85;0.85;;;21.20;99.90;;;;;;5013678;28;20029;-72
2022/05/21 08:15:29;;;;;;;0.30;0.30;;;21.50;99.90;;;;;;5010095;28;20050;-74
2022/05/21 08:17:54;;;;;;;0.50;0.50;;;21.50;99.90;;;;;;5014078;28;20125;-74
2022/05/21 08:20:20;;;;;;;1.20;0.60;;;21.70;99.90;;;;;;5017054;28;20140;-72
2022/05/21 08:28:15;;;;;;;13.40;0.43;;;21.10;99.90;;;;;;5021862;28;20121;-74
2022/05/21 08:30:47;;;;;;;0.38;0.38;;;20.70;99.90;;;;;;5019217;28;20352;-74
2022/05/21 08:33:15;;;;;;;1.75;0.52;;;20.50;99.90;;;;;;5020665;28;20117;-75
2022/05/21 08:35:41;;;;;;;0.40;0.40;;;21.00;99.90;;;;;;5022940;28;20103;-74
2022/05/21 08:38:08;;;;;;;0.30;0.30;;;21.50;99.90;;;;;;5005427;28;20061;-74
2022/05/21 08:40:36;;;;;;;0.20;0.20;;;21.60;99.90;;;;;;5023360;28;20422;-75
2022/05/21 08:43:05;;;;;;;0.55;0.28;;;21.10;99.90;;;;;;5025584;28;20046;-74
2022/05/21 08:45:47;;;;;;;0.20;0.20;;;20.70;99.90;;;;;;5002768;28;20116;-74
2022/05/21 08:48:16;;;;;;;0.93;0.70;;;21.00;99.90;;;;;;4989230;28;20056;-74
2022/05/21 08:50:47;;;;;;;0.73;0.73;;;21.20;99.90;;;;;;5023050;28;20076;-77
2022/05/21 08:53:18;;;;;;;0.45;0.25;;;21.10;99.90;;;;;;5024905;28;20073;-74
2022/05/21 08:55:46;;;;;;;1.95;1.65;;;20.60;99.90;;;;;;4991346;28;20347;-75
2022/05/21 08:58:26;;;;;;;0.60;0.30;;;20.70;99.90;;;;;;5024423;28;20126;-73
2022/05/21 09:00:53;;;;;;;0.30;0.30;;;21.00;99.90;;;;;;5022579;28;20053;-71
2022/05/21 09:03:22;;;;;;;0.65;0.65;;;21.10;99.90;;;;;;5006191;28;20037;-73
2022/05/21 09:06:11;;;;;;;1.20;1.00;;;20.60;99.90;;;;;;5026305;28;20068;-72
2022/05/21 09:08:48;;;;;;;0.40;0.40;;;20.70;99.90;;;;;;4987372;28;20493;-73
2022/05/21 09:11:48;;;;;;;0.20;0.20;;;20.50;99.90;;;;;;5014265;28;20335;-73
2022/05/21 09:14:21;;;;;;;0.40;0.40;;;20.30;99.90;;;;;;5000888;28;20065;-73
2022/05/21 09:16:54;;;;;;;0.30;0.30;;;20.60;99.90;;;;;;5014663;28;20077;-73
2022/05/21 09:19:25;;;;;;;0.90;0.85;;;20.70;99.90;;;;;;5014878;28;20046;-73
2022/05/21 09:22:02;;;;;;;1.95;0.60;;;20.50;99.90;;;;;;5015004;28;20387;-74
2022/05/21 09:24:41;;;;;;;0.25;0.25;;;20.40;99.90;;;;;;4980959;28;20058;-73
2022/05/21 09:27:36;;;;;;;0.20;0.20;;;20.10;99.90;;;;;;4997311;28;20041;-72
2022/05/21 09:30:26;;;;;;;0.28;0.28;;;20.30;99.90;;;;;;4997872;28;20046;-72
2022/05/21 09:32:58;;;;;;;0.43;0.43;;;20.50;99.90;;;;;;5014528;28;20139;-72
2022/05/21 09:35:27;;;;;;;0.30;0.30;;;20.60;99.90;;;;;;5014904;28;20398;-74
2022/05/21 09:37:53;;;;;;;1.08;1.00;;;20.10;99.90;;;;;;5014574;28;20054;-73
2022/05/21 09:40:37;;;;;;;0.40;0.40;;;19.70;99.90;;;;;;5014117;28;20041;-73
2022/05/21 09:46:21;;;;;;;0.88;0.88;;;19.60;99.90;;;;;;5014589;28;20116;-72
2022/05/21 09:48:48;;;;;;;0.30;0.30;;;19.80;99.90;;;;;;4997344;28;20151;-73
2022/05/21 09:51:29;;;;;;;0.40;0.40;;;19.80;99.90;;;;;;5014856;28;20125;-73
2022/05/21 09:53:55;;;;;;;0.98;0.68;;;19.60;99.90;;;;;;5014304;28;20042;-73
2022/05/21 09:56:22;;;;;;;0.22;0.22;;;19.40;99.90;;;;;;5014648;28;20378;-73
2022/05/21 09:58:51;;;;;;;0.38;0.38;;;19.30;99.90;;;;;;5014587;28;20038;-73
2022/05/21 10:01:36;;;;;;;0.30;0.30;;;19.10;99.90;;;;;;5014979;28;20370;-74
2022/05/21 10:04:17;;;;;;;1.08;0.82;;;18.70;99.90;;;;;;5014721;28;20042;-74
2022/05/21 10:06:53;;;;;;;11.27;2.20;;;18.60;99.90;;;;;;5014674;28;20038;-74
2022/05/21 10:12:27;;;;;;;0.57;0.57;;;18.50;99.90;;;;;;5018174;28;20049;-73
2022/05/21 10:15:02;;;;;;;0.68;0.68;;;18.70;99.90;;;;;;5018195;28;20056;-73
2022/05/21 10:17:42;;;;;;;0.30;0.30;;;18.90;99.90;;;;;;5017907;28;20489;-72
2022/05/21 10:20:22;;;;;;;1.48;0.50;;;18.90;99.90;;;;;;5017542;28;20120;-74
2022/05/21 10:22:48;;;;;;;0.28;0.28;;;18.90;99.90;;;;;;5017790;28;20176;-72
2022/05/21 10:25:20;;;;;;;0.65;0.35;;;18.80;99.90;;;;;;5017658;28;20370;-72
2022/05/21 10:28:26;;;;;;;0.30;0.30;;;18.90;99.90;;;;;;5017612;28;20037;-74
2022/05/21 10:31:27;;;;;;;1.65;1.42;;;18.90;99.90;;;;;;5018011;28;20443;-74
2022/05/21 10:34:13;;;;;;;3.40;1.48;;;18.60;99.90;;;;;;4999793;28;20050;-73
2022/05/21 10:37:16;;;;;;;1.60;1.48;;;18.70;99.90;;;;;;5017958;28;20050;-73
2022/05/21 10:40:10;;;;;;;0.30;0.30;;;18.90;99.90;;;;;;4998837;28;20060;-73
2022/05/21 10:42:42;;;;;;;;;;;18.80;99.90;;;;;;5017912;28;20050;-72
2022/05/21 10:45:37;;;;;;;0.30;0.30;;;19.00;99.90;;;;;;5017707;28;19932;-73
2022/05/21 10:48:24;;;;;;;0.20;0.20;;;19.10;99.90;;;;;;5017295;28;20104;-73
2022/05/21 10:50:58;;;;;;;0.20;0.20;;;19.50;99.90;;;;;;5017184;28;20096;-73
2022/05/21 10:54:02;;;;;;;0.30;0.30;;;19.50;99.90;;;;;;5016873;28;20096;-74
2022/05/21 10:56:27;;;;;;;;;;;19.40;99.90;;;;;;5013844;28;20359;-72
2022/05/21 10:59:21;;;;;;;0.22;0.22;;;19.20;99.90;;;;;;5017221;28;19922;-73
2022/05/21 11:02:14;;;;;;;0.73;0.73;;;19.50;99.90;;;;;;5017114;28;20045;-72
2022/05/21 11:05:07;;;;;;;0.40;0.40;;;19.80;99.90;;;;;;5017375;28;20141;-72
2022/05/21 11:08:05;;;;;;;25.02;1.02;;;20.00;99.90;;;;;;5016212;28;20445;-72
2022/05/21 11:10:38;;;;;;;0.30;0.30;;;20.50;99.90;;;;;;4996943;28;20054;-72
2022/05/21 11:13:17;;;;;;;0.25;0.25;;;20.40;99.90;;;;;;4997347;28;20057;-73
2022/05/21 11:15:42;;;;;;;0.20;0.20;;;20.70;99.90;;;;;;4997162;28;20123;-73
2022/05/21 11:18:18;;;;;;;0.30;0.30;;;21.00;99.90;;;;;;4996882;28;20103;-73
2022/05/21 11:21:00;;;;;;;9.95;0.43;;;21.20;99.90;;;;;;4980083;28;20061;-73
2022/05/21 11:23:38;;;;;;;0.30;0.30;;;21.40;99.90;;;;;;5006338;28;20066;-72
2022/05/21 11:26:36;;;;;;;0.25;0.25;;;21.70;99.90;;;;;;5016635;28;20081;-73
2022/05/21 11:29:12;;;;;;;1.17;0.75;;;22.00;99.90;;;;;;4947876;28;20064;-74
2022/05/21 11:37:42;;;;;;;0.43;0.43;;;20.80;99.90;;;;;;5015861;28;20050;-71
2022/05/21 11:40:09;;;;;;;0.20;0.20;;;20.30;99.90;;;;;;5016347;28;20085;-74
2022/05/21 11:42:36;;;;;;;0.30;0.30;;;20.70;99.90;;;;;;5016377;28;20092;-73
2022/05/21 11:45:21;;;;;;;0.25;0.25;;;20.40;99.90;;;;;;5016187;28;20133;-72
2022/05/21 11:47:54;;;;;;;0.20;0.20;;;20.60;99.90;;;;;;4998984;28;20056;-72
2022/05/21 11:50:27;;;;;;;;;;;20.60;99.90;;;;;;5016801;28;20050;-73
2022/05/21 11:53:08;;;;;;;0.28;0.28;;;21.00;99.90;;;;;;5015640;28;19964;-72
2022/05/21 11:56:00;;;;;;;0.20;0.20;;;21.20;99.90;;;;;;5015842;28;20050;-73
2022/05/21 11:58:58;;;;;;;0.73;0.73;;;21.10;99.90;;;;;;5016161;28;20092;-72
2022/05/21 12:01:41;;;;;;;4.18;0.95;;;21.20;99.90;;;;;;5015655;28;20042;-73
2022/05/21 12:04:07;;;;;;;;;;;21.40;99.90;;;;;;5016619;28;20090;-73
2022/05/21 12:06:41;;;;;;;0.30;0.30;;;21.30;99.50;;;;;;5015747;28;19921;-72
2022/05/21 12:09:10;;;;;;;0.30;0.30;;;21.40;99.90;;;;;;4998273;28;20045;-72
2022/05/21 12:11:39;;;;;;;2.35;1.13;;;21.40;99.90;;;;;;4998625;28;20045;-72
2022/05/21 12:14:18;;;;;;;0.20;0.20;;;21.20;99.90;;;;;;5015994;28;20049;-72
2022/05/21 12:16:48;;;;;;;0.20;0.20;;;21.10;99.90;;;;;;5015678;28;20038;-73
2022/05/21 12:19:52;;;;;;;0.30;0.30;;;21.10;98.90;;;;;;5015697;28;20120;-73
2022/05/21 12:23:13;;;;;;;0.30;0.30;;;20.90;99.90;;;;;;5015921;28;20049;-72
2022/05/21 12:25:44;;;;;;;0.20;0.20;;;21.30;99.90;;;;;;4936317;29;20388;-72
2022/05/21 12:28:12;;;;;;;0.20;0.20;;;21.00;99.00;;;;;;5013623;28;20050;-72
2022/05/21 12:30:38;;;;;;;0.20;0.20;;;20.70;99.90;;;;;;4997745;28;20058;-73
2022/05/21 12:33:06;;;;;;;0.20;0.20;;;21.00;99.90;;;;;;5013582;28;20057;-71
2022/05/21 12:35:47;;;;;;;0.30;0.30;;;20.80;99.90;;;;;;5014567;28;20050;-72
2022/05/21 12:38:28;;;;;;;0.10;0.10;;;21.10;99.90;;;;;;5015938;28;20362;-70
2022/05/21 12:41:20;;;;;;;0.10;0.10;;;21.40;99.90;;;;;;5015746;28;20050;-71
2022/05/21 12:43:52;;;;;;;15.33;0.83;;;21.40;99.90;;;;;;5015607;28;20124;-70
2022/05/21 12:46:21;;;;;;;0.20;0.20;;;21.50;99.90;;;;;;5015231;28;20292;-69
2022/05/21 12:48:47;;;;;;;0.40;0.40;;;21.30;99.20;;;;;;5011728;28;20520;-71
2022/05/21 12:51:40;;;;;;;0.90;0.52;;;21.10;99.90;;;;;;5014775;28;20038;-73
2022/05/21 12:54:18;;;;;;;0.40;0.40;;;20.90;99.90;;;;;;5011972;28;20133;-72
2022/05/21 12:56:44;;;;;;;2.97;0.60;;;21.00;99.90;;;;;;5021574;28;20038;-71
2022/05/21 12:59:19;;;;;;;1.75;1.55;;;20.70;99.50;;;;;;5025420;28;20037;-73
2022/05/21 13:01:54;;;;;;;1.13;0.85;;;20.80;99.90;;;;;;5024893;28;20385;-72
2022/05/21 13:04:24;;;;;;;0.20;0.20;;;20.60;99.90;;;;;;5027475;28;20405;-72
2022/05/21 13:07:21;;;;;;;0.43;0.43;;;20.70;99.90;;;;;;5033332;28;20045;-72
2022/05/21 13:10:26;;;;;;;0.30;0.30;;;20.70;99.90;;;;;;5008460;28;20049;-73
2022/05/21 13:13:06;;;;;;;0.30;0.30;;;20.80;99.90;;;;;;5015441;28;20068;-72
2022/05/21 13:15:42;;;;;;;0.73;0.73;;;20.60;99.90;;;;;;5019679;28;20042;-70
2022/05/21 13:18:35;;;;;;;6.03;0.45;;;20.40;99.00;;;;;;5017166;28;20045;-72
2022/05/21 13:21:19;;;;;;;0.30;0.30;;;20.40;99.70;;;;;;5014607;28;20443;-74
2022/05/21 13:23:53;;;;;;;0.40;0.40;;;20.30;99.90;;;;;;5014424;28;20152;-73
2022/05/21 13:26:22;;;;;;;1.55;0.35;;;20.30;99.90;;;;;;4997341;28;20425;-72
2022/05/21 13:28:48;;;;;;;0.30;0.30;;;20.30;99.80;;;;;;5014839;28;20054;-72
2022/05/21 13:31:19;;;;;;;0.30;0.30;;;20.20;98.90;;;;;;5014249;28;20053;-72
2022/05/21 13:33:53;;;;;;;0.30;0.30;;;20.30;98.80;;;;;;5014615;28;20053;-72
2022/05/21 13:36:24;;;;;;;0.57;0.32;;;20.50;99.90;;;;;;4980202;28;20053;-71
2022/05/21 13:38:56;;;;;;;0.52;0.40;;;20.80;99.00;;;;;;4994907;28;20065;-72